sensor_id;sensor_type;location;lat;lon;timestamp;P1;durP1;ratioP1;P2;durP2;ratioP2
21587;SDS011;10956;48.878;13.316;2022-07-21T00:00:50;3.60;;;2.87;;
21587;SDS011;10956;48.878;13.316;2022-07-21T00:03:15;3.63;;;2.97;;
21587;SDS011;10956;48.878;13.316;2022-07-21T00:05:40;5.30;;;3.50;;
21587;SDS011;10956;48.878;13.316;2022-07-21T00:08:06;3.50;;;3.20;;
21587;SDS011;10956;48.878;13.316;2022-07-21T00:10:31;3.67;;;3.37;;
21587;SDS011;10956;48.878;13.316;2022-07-21T00:12:57;2.70;;;2.50;;
21587;SDS011;10956;48.878;13.316;2022-07-21T00:15:23;4.10;;;3.30;;
21587;SDS011;10956;48.878;13.316;2022-07-21T00:17:51;4.80;;;3.57;;
21587;SDS011;10956;48.878;13.316;2022-07-21T00:20:17;4.40;;;4.00;;
21587;SDS011;10956;48.878;13.316;2022-07-21T00:22:43;5.07;;;4.23;;
21587;SDS011;10956;48.878;13.316;2022-07-21T00:25:10;6.77;;;4.70;;
21587;SDS011;10956;48.878;13.316;2022-07-21T00:27:36;5.43;;;4.47;;
21587;SDS011;10956;48.878;13.316;2022-07-21T00:30:05;8.37;;;5.43;;
21587;SDS011;10956;48.878;13.316;2022-07-21T00:32:32;5.83;;;5.10;;
21587;SDS011;10956;48.878;13.316;2022-07-21T00:34:58;7.73;;;5.90;;
21587;SDS011;10956;48.878;13.316;2022-07-21T00:37:24;6.47;;;5.70;;
21587;SDS011;10956;48.878;13.316;2022-07-21T00:39:50;6.27;;;5.37;;
21587;SDS011;10956;48.878;13.316;2022-07-21T00:42:23;6.60;;;5.80;;
21587;SDS011;10956;48.878;13.316;2022-07-21T00:44:50;7.10;;;5.57;;
21587;SDS011;10956;48.878;13.316;2022-07-21T00:47:18;8.13;;;5.93;;
21587;SDS011;10956;48.878;13.316;2022-07-21T00:49:45;7.57;;;6.23;;
21587;SDS011;10956;48.878;13.316;2022-07-21T00:52:11;7.53;;;6.40;;
21587;SDS011;10956;48.878;13.316;2022-07-21T00:54:37;8.23;;;7.40;;
21587;SDS011;10956;48.878;13.316;2022-07-21T00:57:02;8.07;;;6.77;;
21587;SDS011;10956;48.878;13.316;2022-07-21T00:59:29;7.23;;;6.53;;
21587;SDS011;10956;48.878;13.316;2022-07-21T01:01:56;9.37;;;7.13;;
21587;SDS011;10956;48.878;13.316;2022-07-21T01:04:21;8.27;;;7.10;;
21587;SDS011;10956;48.878;13.316;2022-07-21T01:06:47;10.93;;;7.17;;
21587;SDS011;10956;48.878;13.316;2022-07-21T01:09:12;8.13;;;6.40;;
21587;SDS011;10956;48.878;13.316;2022-07-21T01:11:38;8.03;;;7.23;;
21587;SDS011;10956;48.878;13.316;2022-07-21T01:14:05;7.67;;;6.87;;
21587;SDS011;10956;48.878;13.316;2022-07-21T01:16:31;7.90;;;7.10;;
21587;SDS011;10956;48.878;13.316;2022-07-21T01:18:56;8.53;;;7.43;;
21587;SDS011;10956;48.878;13.316;2022-07-21T01:21:33;8.57;;;7.70;;
21587;SDS011;10956;48.878;13.316;2022-07-21T01:24:00;10.70;;;7.00;;
21587;SDS011;10956;48.878;13.316;2022-07-21T01:26:26;8.30;;;7.40;;
21587;SDS011;10956;48.878;13.316;2022-07-21T01:28:52;9.77;;;8.20;;
21587;SDS011;10956;48.878;13.316;2022-07-21T01:31:18;8.50;;;7.60;;
21587;SDS011;10956;48.878;13.316;2022-07-21T01:33:43;9.03;;;8.13;;
21587;SDS011;10956;48.878;13.316;2022-07-21T01:36:09;9.40;;;7.77;;
21587;SDS011;10956;48.878;13.316;2022-07-21T01:38:35;13.47;;;9.17;;
21587;SDS011;10956;48.878;13.316;2022-07-21T01:41:19;9.47;;;8.43;;
21587;SDS011;10956;48.878;13.316;2022-07-21T01:43:54;9.37;;;8.33;;
21587;SDS011;10956;48.878;13.316;2022-07-21T01:46:23;13.03;;;8.17;;
21587;SDS011;10956;48.878;13.316;2022-07-21T01:48:49;9.00;;;7.60;;
21587;SDS011;10956;48.878;13.316;2022-07-21T01:51:14;12.23;;;9.07;;
21587;SDS011;10956;48.878;13.316;2022-07-21T01:53:40;10.63;;;8.40;;
21587;SDS011;10956;48.878;13.316;2022-07-21T01:56:06;10.33;;;8.77;;
21587;SDS011;10956;48.878;13.316;2022-07-21T01:58:32;9.83;;;8.80;;
21587;SDS011;10956;48.878;13.316;2022-07-21T02:00:57;9.90;;;8.67;;
21587;SDS011;10956;48.878;13.316;2022-07-21T02:03:23;10.17;;;8.60;;
21587;SDS011;10956;48.878;13.316;2022-07-21T02:05:49;13.17;;;10.73;;
21587;SDS011;10956;48.878;13.316;2022-07-21T02:08:14;12.03;;;10.00;;
21587;SDS011;10956;48.878;13.316;2022-07-21T02:10:40;14.43;;;10.90;;
21587;SDS011;10956;48.878;13.316;2022-07-21T02:13:05;14.13;;;9.70;;
21587;SDS011;10956;48.878;13.316;2022-07-21T02:15:31;17.63;;;9.50;;
21587;SDS011;10956;48.878;13.316;2022-07-21T02:17:56;13.70;;;10.10;;
21587;SDS011;10956;48.878;13.316;2022-07-21T02:20:22;13.57;;;9.57;;
21587;SDS011;10956;48.878;13.316;2022-07-21T02:22:48;12.13;;;9.00;;
21587;SDS011;10956;48.878;13.316;2022-07-21T02:25:14;12.23;;;8.00;;
21587;SDS011;10956;48.878;13.316;2022-07-21T02:27:40;8.30;;;7.33;;
21587;SDS011;10956;48.878;13.316;2022-07-21T02:30:07;8.67;;;7.77;;
21587;SDS011;10956;48.878;13.316;2022-07-21T02:32:32;11.07;;;8.23;;
21587;SDS011;10956;48.878;13.316;2022-07-21T02:34:58;8.83;;;7.80;;
21587;SDS011;10956;48.878;13.316;2022-07-21T02:37:23;10.53;;;8.30;;
21587;SDS011;10956;48.878;13.316;2022-07-21T02:39:48;11.30;;;8.03;;
21587;SDS011;10956;48.878;13.316;2022-07-21T02:42:14;8.67;;;7.77;;
21587;SDS011;10956;48.878;13.316;2022-07-21T02:44:40;9.47;;;7.00;;
21587;SDS011;10956;48.878;13.316;2022-07-21T02:47:05;8.50;;;7.63;;
21587;SDS011;10956;48.878;13.316;2022-07-21T02:49:31;7.50;;;6.70;;
21587;SDS011;10956;48.878;13.316;2022-07-21T02:51:56;8.57;;;7.60;;
21587;SDS011;10956;48.878;13.316;2022-07-21T02:54:22;8.97;;;7.40;;
21587;SDS011;10956;48.878;13.316;2022-07-21T02:56:47;7.93;;;7.20;;
21587;SDS011;10956;48.878;13.316;2022-07-21T02:59:13;10.07;;;8.13;;
21587;SDS011;10956;48.878;13.316;2022-07-21T03:01:38;7.70;;;6.90;;
21587;SDS011;10956;48.878;13.316;2022-07-21T03:04:04;6.97;;;6.33;;
21587;SDS011;10956;48.878;13.316;2022-07-21T03:06:29;10.17;;;7.20;;
21587;SDS011;10956;48.878;13.316;2022-07-21T03:08:54;9.73;;;6.77;;
21587;SDS011;10956;48.878;13.316;2022-07-21T03:11:20;10.60;;;6.83;;
21587;SDS011;10956;48.878;13.316;2022-07-21T03:13:45;8.97;;;6.70;;
21587;SDS011;10956;48.878;13.316;2022-07-21T03:16:11;6.93;;;6.13;;
21587;SDS011;10956;48.878;13.316;2022-07-21T03:18:36;10.90;;;6.07;;
21587;SDS011;10956;48.878;13.316;2022-07-21T03:21:01;7.40;;;5.80;;
21587;SDS011;10956;48.878;13.316;2022-07-21T03:23:27;6.33;;;5.60;;
21587;SDS011;10956;48.878;13.316;2022-07-21T03:25:53;5.33;;;4.70;;
21587;SDS011;10956;48.878;13.316;2022-07-21T03:28:18;8.47;;;4.83;;
21587;SDS011;10956;48.878;13.316;2022-07-21T03:30:44;5.93;;;4.87;;
21587;SDS011;10956;48.878;13.316;2022-07-21T03:33:09;5.47;;;4.90;;
21587;SDS011;10956;48.878;13.316;2022-07-21T03:35:35;6.73;;;5.00;;
21587;SDS011;10956;48.878;13.316;2022-07-21T03:38:03;6.63;;;5.20;;
21587;SDS011;10956;48.878;13.316;2022-07-21T03:40:31;12.57;;;5.50;;
21587;SDS011;10956;48.878;13.316;2022-07-21T03:42:59;7.17;;;5.87;;
21587;SDS011;10956;48.878;13.316;2022-07-21T03:45:26;12.90;;;5.90;;
21587;SDS011;10956;48.878;13.316;2022-07-21T03:47:55;11.53;;;5.47;;
21587;SDS011;10956;48.878;13.316;2022-07-21T03:50:21;15.83;;;6.00;;
21587;SDS011;10956;48.878;13.316;2022-07-21T03:52:47;6.10;;;5.50;;
21587;SDS011;10956;48.878;13.316;2022-07-21T03:55:13;7.77;;;5.47;;
21587;SDS011;10956;48.878;13.316;2022-07-21T03:57:55;6.97;;;6.27;;
21587;SDS011;10956;48.878;13.316;2022-07-21T04:00:23;7.27;;;5.90;;
21587;SDS011;10956;48.878;13.316;2022-07-21T04:03:11;7.43;;;6.30;;
21587;SDS011;10956;48.878;13.316;2022-07-21T04:05:37;8.27;;;6.70;;
21587;SDS011;10956;48.878;13.316;2022-07-21T04:08:04;6.60;;;5.87;;
21587;SDS011;10956;48.878;13.316;2022-07-21T04:10:31;7.07;;;6.27;;
21587;SDS011;10956;48.878;13.316;2022-07-21T04:12:58;7.23;;;6.53;;
21587;SDS011;10956;48.878;13.316;2022-07-21T04:15:37;7.27;;;6.43;;
21587;SDS011;10956;48.878;13.316;2022-07-21T04:18:04;6.93;;;6.23;;
21587;SDS011;10956;48.878;13.316;2022-07-21T04:20:30;8.03;;;7.10;;
21587;SDS011;10956;48.878;13.316;2022-07-21T04:22:57;7.03;;;6.43;;
21587;SDS011;10956;48.878;13.316;2022-07-21T04:25:22;6.77;;;6.17;;
21587;SDS011;10956;48.878;13.316;2022-07-21T04:27:48;8.30;;;7.10;;
21587;SDS011;10956;48.878;13.316;2022-07-21T04:30:15;8.13;;;6.90;;
21587;SDS011;10956;48.878;13.316;2022-07-21T04:32:45;7.13;;;6.43;;
21587;SDS011;10956;48.878;13.316;2022-07-21T04:35:12;7.33;;;6.63;;
21587;SDS011;10956;48.878;13.316;2022-07-21T04:37:39;6.93;;;6.03;;
21587;SDS011;10956;48.878;13.316;2022-07-21T04:40:05;6.50;;;5.53;;
21587;SDS011;10956;48.878;13.316;2022-07-21T04:42:32;7.23;;;5.70;;
21587;SDS011;10956;48.878;13.316;2022-07-21T04:44:58;6.37;;;5.77;;
21587;SDS011;10956;48.878;13.316;2022-07-21T04:47:23;6.13;;;5.63;;
21587;SDS011;10956;48.878;13.316;2022-07-21T04:49:48;6.50;;;5.90;;
21587;SDS011;10956;48.878;13.316;2022-07-21T04:52:14;6.10;;;5.60;;
21587;SDS011;10956;48.878;13.316;2022-07-21T04:54:39;7.57;;;6.20;;
21587;SDS011;10956;48.878;13.316;2022-07-21T04:57:05;8.13;;;6.40;;
21587;SDS011;10956;48.878;13.316;2022-07-21T04:59:31;7.33;;;6.33;;
21587;SDS011;10956;48.878;13.316;2022-07-21T05:01:57;6.07;;;5.50;;
21587;SDS011;10956;48.878;13.316;2022-07-21T05:04:23;6.57;;;5.90;;
21587;SDS011;10956;48.878;13.316;2022-07-21T05:06:49;9.97;;;6.50;;
21587;SDS011;10956;48.878;13.316;2022-07-21T05:09:14;6.33;;;5.83;;
21587;SDS011;10956;48.878;13.316;2022-07-21T05:11:40;6.53;;;6.00;;
21587;SDS011;10956;48.878;13.316;2022-07-21T05:14:05;8.27;;;6.37;;
21587;SDS011;10956;48.878;13.316;2022-07-21T05:16:31;6.17;;;5.57;;
21587;SDS011;10956;48.878;13.316;2022-07-21T05:18:56;6.77;;;6.10;;
21587;SDS011;10956;48.878;13.316;2022-07-21T05:21:22;6.90;;;6.30;;
21587;SDS011;10956;48.878;13.316;2022-07-21T05:23:47;7.17;;;6.20;;
21587;SDS011;10956;48.878;13.316;2022-07-21T05:26:13;6.30;;;5.70;;
21587;SDS011;10956;48.878;13.316;2022-07-21T05:28:39;6.20;;;5.60;;
21587;SDS011;10956;48.878;13.316;2022-07-21T05:31:05;7.20;;;6.50;;
21587;SDS011;10956;48.878;13.316;2022-07-21T05:33:31;8.80;;;6.07;;
21587;SDS011;10956;48.878;13.316;2022-07-21T05:35:57;8.03;;;5.73;;
21587;SDS011;10956;48.878;13.316;2022-07-21T05:38:22;6.30;;;5.70;;
21587;SDS011;10956;48.878;13.316;2022-07-21T05:40:47;6.40;;;5.90;;
21587;SDS011;10956;48.878;13.316;2022-07-21T05:43:13;7.03;;;6.43;;
21587;SDS011;10956;48.878;13.316;2022-07-21T05:45:38;7.23;;;6.37;;
21587;SDS011;10956;48.878;13.316;2022-07-21T05:48:04;7.07;;;6.37;;
21587;SDS011;10956;48.878;13.316;2022-07-21T05:50:30;7.00;;;6.30;;
21587;SDS011;10956;48.878;13.316;2022-07-21T05:52:55;6.43;;;5.83;;
21587;SDS011;10956;48.878;13.316;2022-07-21T05:55:21;6.30;;;5.70;;
21587;SDS011;10956;48.878;13.316;2022-07-21T05:57:46;6.47;;;5.80;;
21587;SDS011;10956;48.878;13.316;2022-07-21T06:00:11;5.75;;;5.22;;
21587;SDS011;10956;48.878;13.316;2022-07-21T06:02:37;5.80;;;5.30;;
21587;SDS011;10956;48.878;13.316;2022-07-21T06:05:02;5.53;;;5.03;;
21587;SDS011;10956;48.878;13.316;2022-07-21T06:07:28;6.20;;;5.63;;
21587;SDS011;10956;48.878;13.316;2022-07-21T06:09:53;5.68;;;5.18;;
21587;SDS011;10956;48.878;13.316;2022-07-21T06:12:19;7.15;;;5.10;;
21587;SDS011;10956;48.878;13.316;2022-07-21T06:14:44;6.43;;;5.18;;
21587;SDS011;10956;48.878;13.316;2022-07-21T06:17:10;5.78;;;5.28;;
21587;SDS011;10956;48.878;13.316;2022-07-21T06:19:35;5.57;;;5.07;;
21587;SDS011;10956;48.878;13.316;2022-07-21T06:22:00;5.38;;;4.88;;
21587;SDS011;10956;48.878;13.316;2022-07-21T06:24:27;6.07;;;5.53;;
21587;SDS011;10956;48.878;13.316;2022-07-21T06:26:53;5.95;;;5.05;;
21587;SDS011;10956;48.878;13.316;2022-07-21T06:29:22;5.32;;;4.82;;
21587;SDS011;10956;48.878;13.316;2022-07-21T06:31:48;4.65;;;4.25;;
21587;SDS011;10956;48.878;13.316;2022-07-21T06:34:13;5.55;;;4.95;;
21587;SDS011;10956;48.878;13.316;2022-07-21T06:36:39;5.78;;;5.15;;
21587;SDS011;10956;48.878;13.316;2022-07-21T06:39:04;5.30;;;4.90;;
21587;SDS011;10956;48.878;13.316;2022-07-21T06:41:30;4.43;;;4.03;;
21587;SDS011;10956;48.878;13.316;2022-07-21T06:43:55;5.63;;;4.45;;
21587;SDS011;10956;48.878;13.316;2022-07-21T06:46:21;5.40;;;4.85;;
21587;SDS011;10956;48.878;13.316;2022-07-21T06:48:46;4.95;;;4.53;;
21587;SDS011;10956;48.878;13.316;2022-07-21T06:51:12;4.90;;;4.03;;
21587;SDS011;10956;48.878;13.316;2022-07-21T06:53:37;4.50;;;4.10;;
21587;SDS011;10956;48.878;13.316;2022-07-21T06:56:03;5.15;;;4.75;;
21587;SDS011;10956;48.878;13.316;2022-07-21T06:58:28;6.07;;;5.47;;
21587;SDS011;10956;48.878;13.316;2022-07-21T07:00:54;6.00;;;5.40;;
21587;SDS011;10956;48.878;13.316;2022-07-21T07:03:20;4.68;;;4.28;;
21587;SDS011;10956;48.878;13.316;2022-07-21T07:05:46;5.30;;;4.80;;
21587;SDS011;10956;48.878;13.316;2022-07-21T07:08:13;4.95;;;4.55;;
21587;SDS011;10956;48.878;13.316;2022-07-21T07:10:39;4.85;;;4.45;;
21587;SDS011;10956;48.878;13.316;2022-07-21T07:13:05;5.28;;;4.70;;
21587;SDS011;10956;48.878;13.316;2022-07-21T07:15:31;5.40;;;4.90;;
21587;SDS011;10956;48.878;13.316;2022-07-21T07:17:57;4.68;;;4.28;;
21587;SDS011;10956;48.878;13.316;2022-07-21T07:20:22;4.60;;;4.20;;
21587;SDS011;10956;48.878;13.316;2022-07-21T07:22:48;4.75;;;4.32;;
21587;SDS011;10956;48.878;13.316;2022-07-21T07:25:13;4.80;;;4.40;;
21587;SDS011;10956;48.878;13.316;2022-07-21T07:27:46;4.60;;;4.20;;
21587;SDS011;10956;48.878;13.316;2022-07-21T07:30:12;4.22;;;3.92;;
21587;SDS011;10956;48.878;13.316;2022-07-21T07:32:38;5.18;;;4.68;;
21587;SDS011;10956;48.878;13.316;2022-07-21T07:35:05;4.72;;;4.32;;
21587;SDS011;10956;48.878;13.316;2022-07-21T07:37:33;5.10;;;4.70;;
21587;SDS011;10956;48.878;13.316;2022-07-21T07:40:06;5.60;;;4.95;;
21587;SDS011;10956;48.878;13.316;2022-07-21T07:42:35;5.38;;;4.88;;
21587;SDS011;10956;48.878;13.316;2022-07-21T07:45:01;5.40;;;4.90;;
21587;SDS011;10956;48.878;13.316;2022-07-21T07:47:29;5.50;;;5.00;;
21587;SDS011;10956;48.878;13.316;2022-07-21T07:49:54;4.93;;;4.50;;
21587;SDS011;10956;48.878;13.316;2022-07-21T07:52:20;5.35;;;4.85;;
21587;SDS011;10956;48.878;13.316;2022-07-21T07:54:46;5.82;;;4.80;;
21587;SDS011;10956;48.878;13.316;2022-07-21T07:57:11;5.38;;;4.88;;
21587;SDS011;10956;48.878;13.316;2022-07-21T07:59:36;4.35;;;3.95;;
21587;SDS011;10956;48.878;13.316;2022-07-21T08:02:02;4.20;;;3.88;;
21587;SDS011;10956;48.878;13.316;2022-07-21T08:04:28;4.32;;;4.03;;
21587;SDS011;10956;48.878;13.316;2022-07-21T08:06:54;4.13;;;3.78;;
21587;SDS011;10956;48.878;13.316;2022-07-21T08:09:19;3.83;;;3.53;;
21587;SDS011;10956;48.878;13.316;2022-07-21T08:11:45;3.60;;;3.30;;
21587;SDS011;10956;48.878;13.316;2022-07-21T08:14:14;3.55;;;3.35;;
21587;SDS011;10956;48.878;13.316;2022-07-21T08:16:39;3.00;;;2.80;;
21587;SDS011;10956;48.878;13.316;2022-07-21T08:19:05;4.13;;;3.78;;
21587;SDS011;10956;48.878;13.316;2022-07-21T08:21:31;4.32;;;3.80;;
21587;SDS011;10956;48.878;13.316;2022-07-21T08:23:58;3.80;;;3.50;;
21587;SDS011;10956;48.878;13.316;2022-07-21T08:26:25;4.32;;;3.35;;
21587;SDS011;10956;48.878;13.316;2022-07-21T08:28:51;3.53;;;3.22;;
21587;SDS011;10956;48.878;13.316;2022-07-21T08:31:20;3.88;;;3.55;;
21587;SDS011;10956;48.878;13.316;2022-07-21T08:33:45;3.97;;;3.67;;
21587;SDS011;10956;48.878;13.316;2022-07-21T08:36:11;3.50;;;3.20;;
21587;SDS011;10956;48.878;13.316;2022-07-21T08:38:37;3.85;;;3.55;;
21587;SDS011;10956;48.878;13.316;2022-07-21T08:41:02;3.70;;;3.40;;
21587;SDS011;10956;48.878;13.316;2022-07-21T08:43:28;3.55;;;3.25;;
21587;SDS011;10956;48.878;13.316;2022-07-21T08:45:55;3.42;;;3.20;;
21587;SDS011;10956;48.878;13.316;2022-07-21T08:48:24;8.40;;;3.75;;
21587;SDS011;10956;48.878;13.316;2022-07-21T08:50:50;6.63;;;3.28;;
21587;SDS011;10956;48.878;13.316;2022-07-21T08:53:16;3.40;;;3.10;;
21587;SDS011;10956;48.878;13.316;2022-07-21T08:55:41;3.40;;;3.17;;
21587;SDS011;10956;48.878;13.316;2022-07-21T08:58:10;2.83;;;2.63;;
21587;SDS011;10956;48.878;13.316;2022-07-21T09:00:38;3.30;;;3.00;;
21587;SDS011;10956;48.878;13.316;2022-07-21T09:05:36;3.28;;;2.95;;
21587;SDS011;10956;48.878;13.316;2022-07-21T09:08:02;3.78;;;3.00;;
21587;SDS011;10956;48.878;13.316;2022-07-21T09:10:28;3.72;;;3.40;;
21587;SDS011;10956;48.878;13.316;2022-07-21T09:12:57;3.80;;;3.50;;
21587;SDS011;10956;48.878;13.316;2022-07-21T09:15:25;3.70;;;3.40;;
21587;SDS011;10956;48.878;13.316;2022-07-21T09:20:35;4.40;;;4.00;;
21587;SDS011;10956;48.878;13.316;2022-07-21T09:23:07;3.92;;;3.60;;
21587;SDS011;10956;48.878;13.316;2022-07-21T09:33:20;3.60;;;3.30;;
21587;SDS011;10956;48.878;13.316;2022-07-21T09:36:07;3.03;;;2.83;;
21587;SDS011;10956;48.878;13.316;2022-07-21T09:38:56;2.78;;;2.58;;
21587;SDS011;10956;48.878;13.316;2022-07-21T09:41:22;2.85;;;2.65;;
21587;SDS011;10956;48.878;13.316;2022-07-21T09:43:49;2.80;;;2.60;;
21587;SDS011;10956;48.878;13.316;2022-07-21T09:46:24;3.63;;;3.33;;
21587;SDS011;10956;48.878;13.316;2022-07-21T09:48:55;3.67;;;3.17;;
21587;SDS011;10956;48.878;13.316;2022-07-21T09:54:05;3.70;;;3.40;;
21587;SDS011;10956;48.878;13.316;2022-07-21T09:56:36;3.22;;;3.00;;
21587;SDS011;10956;48.878;13.316;2022-07-21T09:59:04;4.18;;;3.78;;
21587;SDS011;10956;48.878;13.316;2022-07-21T10:01:31;3.63;;;3.33;;
21587;SDS011;10956;48.878;13.316;2022-07-21T10:03:58;3.05;;;2.85;;
21587;SDS011;10956;48.878;13.316;2022-07-21T10:06:28;3.58;;;3.38;;
21587;SDS011;10956;48.878;13.316;2022-07-21T10:08:56;3.30;;;3.08;;
21587;SDS011;10956;48.878;13.316;2022-07-21T10:11:24;3.47;;;3.17;;
21587;SDS011;10956;48.878;13.316;2022-07-21T10:13:51;6.90;;;4.13;;
21587;SDS011;10956;48.878;13.316;2022-07-21T10:16:16;3.40;;;3.20;;
21587;SDS011;10956;48.878;13.316;2022-07-21T10:24:34;3.83;;;3.53;;
21587;SDS011;10956;48.878;13.316;2022-07-21T10:27:05;3.80;;;3.50;;
21587;SDS011;10956;48.878;13.316;2022-07-21T10:32:24;4.03;;;3.72;;
21587;SDS011;10956;48.878;13.316;2022-07-21T10:34:52;4.88;;;4.32;;
21587;SDS011;10956;48.878;13.316;2022-07-21T10:42:43;3.95;;;3.65;;
21587;SDS011;10956;48.878;13.316;2022-07-21T10:48:06;4.53;;;4.13;;
21587;SDS011;10956;48.878;13.316;2022-07-21T10:53:01;4.45;;;4.05;;
21587;SDS011;10956;48.878;13.316;2022-07-21T10:55:35;4.00;;;3.70;;
21587;SDS011;10956;48.878;13.316;2022-07-21T10:58:14;4.03;;;3.67;;
21587;SDS011;10956;48.878;13.316;2022-07-21T11:03:24;4.75;;;4.15;;
21587;SDS011;10956;48.878;13.316;2022-07-21T11:08:32;4.45;;;4.05;;
21587;SDS011;10956;48.878;13.316;2022-07-21T11:11:11;3.80;;;3.50;;
21587;SDS011;10956;48.878;13.316;2022-07-21T11:14:07;3.70;;;3.40;;
21587;SDS011;10956;48.878;13.316;2022-07-21T11:21:53;3.70;;;3.40;;
21587;SDS011;10956;48.878;13.316;2022-07-21T11:24:20;4.50;;;4.10;;
21587;SDS011;10956;48.878;13.316;2022-07-21T11:26:54;3.70;;;3.40;;
21587;SDS011;10956;48.878;13.316;2022-07-21T11:29:20;3.17;;;2.97;;
21587;SDS011;10956;48.878;13.316;2022-07-21T11:31:47;3.47;;;3.20;;
21587;SDS011;10956;48.878;13.316;2022-07-21T11:34:12;3.85;;;3.55;;
21587;SDS011;10956;48.878;13.316;2022-07-21T11:36:38;5.05;;;4.18;;
21587;SDS011;10956;48.878;13.316;2022-07-21T11:39:05;3.38;;;3.17;;
21587;SDS011;10956;48.878;13.316;2022-07-21T11:41:33;3.90;;;3.55;;
21587;SDS011;10956;48.878;13.316;2022-07-21T11:44:01;3.55;;;3.25;;
21587;SDS011;10956;48.878;13.316;2022-07-21T11:46:28;3.25;;;3.00;;
21587;SDS011;10956;48.878;13.316;2022-07-21T11:49:00;3.05;;;2.85;;
21587;SDS011;10956;48.878;13.316;2022-07-21T11:51:29;3.55;;;3.25;;
21587;SDS011;10956;48.878;13.316;2022-07-21T11:53:54;3.97;;;3.45;;
21587;SDS011;10956;48.878;13.316;2022-07-21T11:56:20;3.50;;;3.17;;
21587;SDS011;10956;48.878;13.316;2022-07-21T11:58:45;4.07;;;3.78;;
21587;SDS011;10956;48.878;13.316;2022-07-21T12:01:11;3.13;;;2.92;;
21587;SDS011;10956;48.878;13.316;2022-07-21T12:03:49;3.80;;;3.50;;
21587;SDS011;10956;48.878;13.316;2022-07-21T12:06:15;3.95;;;3.65;;
21587;SDS011;10956;48.878;13.316;2022-07-21T12:08:42;3.70;;;3.40;;
21587;SDS011;10956;48.878;13.316;2022-07-21T12:11:08;3.17;;;2.90;;
21587;SDS011;10956;48.878;13.316;2022-07-21T12:13:55;3.63;;;3.33;;
21587;SDS011;10956;48.878;13.316;2022-07-21T12:16:21;3.47;;;3.17;;
21587;SDS011;10956;48.878;13.316;2022-07-21T12:18:47;3.38;;;3.08;;
21587;SDS011;10956;48.878;13.316;2022-07-21T12:21:13;3.25;;;3.05;;
21587;SDS011;10956;48.878;13.316;2022-07-21T12:23:39;3.67;;;3.38;;
21587;SDS011;10956;48.878;13.316;2022-07-21T12:26:04;4.05;;;3.72;;
21587;SDS011;10956;48.878;13.316;2022-07-21T12:31:12;5.63;;;3.88;;
21587;SDS011;10956;48.878;13.316;2022-07-21T12:33:39;3.85;;;3.55;;
21587;SDS011;10956;48.878;13.316;2022-07-21T12:36:06;3.90;;;3.60;;
21587;SDS011;10956;48.878;13.316;2022-07-21T12:38:43;3.80;;;3.50;;
21587;SDS011;10956;48.878;13.316;2022-07-21T12:41:11;4.13;;;3.72;;
21587;SDS011;10956;48.878;13.316;2022-07-21T12:43:38;3.70;;;3.40;;
21587;SDS011;10956;48.878;13.316;2022-07-21T12:46:14;4.13;;;3.83;;
21587;SDS011;10956;48.878;13.316;2022-07-21T12:48:42;4.68;;;4.28;;
21587;SDS011;10956;48.878;13.316;2022-07-21T12:51:10;3.75;;;3.33;;
21587;SDS011;10956;48.878;13.316;2022-07-21T12:53:39;3.80;;;3.20;;
21587;SDS011;10956;48.878;13.316;2022-07-21T12:56:13;3.60;;;3.30;;
21587;SDS011;10956;48.878;13.316;2022-07-21T12:58:49;3.50;;;3.20;;
21587;SDS011;10956;48.878;13.316;2022-07-21T13:01:16;4.20;;;3.80;;
21587;SDS011;10956;48.878;13.316;2022-07-21T13:03:43;3.60;;;3.30;;
21587;SDS011;10956;48.878;13.316;2022-07-21T13:06:09;3.88;;;3.58;;
21587;SDS011;10956;48.878;13.316;2022-07-21T13:08:36;3.90;;;3.55;;
21587;SDS011;10956;48.878;13.316;2022-07-21T13:11:04;4.72;;;4.00;;
21587;SDS011;10956;48.878;13.316;2022-07-21T13:13:30;4.45;;;4.05;;
21587;SDS011;10956;48.878;13.316;2022-07-21T13:15:56;4.85;;;4.43;;
21587;SDS011;10956;48.878;13.316;2022-07-21T13:18:22;4.18;;;3.88;;
21587;SDS011;10956;48.878;13.316;2022-07-21T13:20:48;5.30;;;4.80;;
21587;SDS011;10956;48.878;13.316;2022-07-21T13:23:15;5.80;;;5.30;;
21587;SDS011;10956;48.878;13.316;2022-07-21T13:25:40;5.47;;;4.97;;
21587;SDS011;10956;48.878;13.316;2022-07-21T13:28:06;7.15;;;6.45;;
21587;SDS011;10956;48.878;13.316;2022-07-21T13:30:32;5.53;;;5.03;;
21587;SDS011;10956;48.878;13.316;2022-07-21T13:32:58;5.13;;;4.63;;
21587;SDS011;10956;48.878;13.316;2022-07-21T13:35:23;5.47;;;4.95;;
21587;SDS011;10956;48.878;13.316;2022-07-21T13:37:49;5.10;;;4.70;;
21587;SDS011;10956;48.878;13.316;2022-07-21T13:40:14;4.82;;;4.43;;
21587;SDS011;10956;48.878;13.316;2022-07-21T13:42:40;5.28;;;4.88;;
21587;SDS011;10956;48.878;13.316;2022-07-21T13:45:05;4.78;;;4.38;;
21587;SDS011;10956;48.878;13.316;2022-07-21T13:47:32;5.38;;;4.80;;
21587;SDS011;10956;48.878;13.316;2022-07-21T13:49:58;5.20;;;4.80;;
21587;SDS011;10956;48.878;13.316;2022-07-21T13:52:23;5.85;;;5.35;;
21587;SDS011;10956;48.878;13.316;2022-07-21T13:54:49;5.57;;;5.07;;
21587;SDS011;10956;48.878;13.316;2022-07-21T13:57:14;6.45;;;5.85;;
21587;SDS011;10956;48.878;13.316;2022-07-21T13:59:39;5.57;;;5.10;;
21587;SDS011;10956;48.878;13.316;2022-07-21T14:02:06;7.18;;;4.93;;
21587;SDS011;10956;48.878;13.316;2022-07-21T14:04:32;5.40;;;4.90;;
21587;SDS011;10956;48.878;13.316;2022-07-21T14:06:58;5.22;;;4.72;;
21587;SDS011;10956;48.878;13.316;2022-07-21T14:09:23;5.63;;;5.05;;
21587;SDS011;10956;48.878;13.316;2022-07-21T14:11:48;5.88;;;5.25;;
21587;SDS011;10956;48.878;13.316;2022-07-21T14:14:14;8.32;;;4.90;;
21587;SDS011;10956;48.878;13.316;2022-07-21T14:16:43;5.78;;;4.65;;
21587;SDS011;10956;48.878;13.316;2022-07-21T14:19:08;4.65;;;4.25;;
21587;SDS011;10956;48.878;13.316;2022-07-21T14:21:34;4.78;;;4.35;;
21587;SDS011;10956;48.878;13.316;2022-07-21T14:23:59;5.13;;;4.63;;
21587;SDS011;10956;48.878;13.316;2022-07-21T14:26:43;5.70;;;4.70;;
21587;SDS011;10956;48.878;13.316;2022-07-21T14:29:08;7.20;;;5.40;;
21587;SDS011;10956;48.878;13.316;2022-07-21T14:31:34;5.00;;;4.60;;
21587;SDS011;10956;48.878;13.316;2022-07-21T14:34:00;9.82;;;5.07;;
21587;SDS011;10956;48.878;13.316;2022-07-21T14:36:25;5.20;;;4.40;;
21587;SDS011;10956;48.878;13.316;2022-07-21T14:38:50;5.05;;;4.65;;
21587;SDS011;10956;48.878;13.316;2022-07-21T14:41:16;4.50;;;4.10;;
21587;SDS011;10956;48.878;13.316;2022-07-21T14:43:42;4.13;;;3.83;;
21587;SDS011;10956;48.878;13.316;2022-07-21T14:46:07;5.72;;;5.18;;
21587;SDS011;10956;48.878;13.316;2022-07-21T14:48:32;5.03;;;4.30;;
21587;SDS011;10956;48.878;13.316;2022-07-21T14:50:58;4.88;;;4.47;;
21587;SDS011;10956;48.878;13.316;2022-07-21T14:53:23;4.72;;;4.32;;
21587;SDS011;10956;48.878;13.316;2022-07-21T14:55:49;5.15;;;4.75;;
21587;SDS011;10956;48.878;13.316;2022-07-21T14:58:14;4.47;;;4.07;;
21587;SDS011;10956;48.878;13.316;2022-07-21T15:00:40;6.00;;;5.05;;
21587;SDS011;10956;48.878;13.316;2022-07-21T15:03:05;4.93;;;4.53;;
21587;SDS011;10956;48.878;13.316;2022-07-21T15:05:30;4.72;;;4.32;;
21587;SDS011;10956;48.878;13.316;2022-07-21T15:07:56;4.78;;;4.28;;
21587;SDS011;10956;48.878;13.316;2022-07-21T15:10:21;4.30;;;3.90;;
21587;SDS011;10956;48.878;13.316;2022-07-21T15:12:47;4.95;;;4.07;;
21587;SDS011;10956;48.878;13.316;2022-07-21T15:15:12;4.55;;;4.15;;
21587;SDS011;10956;48.878;13.316;2022-07-21T15:17:38;4.72;;;4.32;;
21587;SDS011;10956;48.878;13.316;2022-07-21T15:20:04;4.85;;;4.30;;